sensor_id;sensor_type;location;lat;lon;timestamp;pressure;altitude;pressure_sealevel;temperature;humidity
38786;BME280;24535;45.508;12.252;2023-05-14T00:01:40;101480.34;;;17.49;59.73
38786;BME280;24535;45.508;12.252;2023-05-14T00:04:05;101480.34;;;17.49;60.62
38786;BME280;24535;45.508;12.252;2023-05-14T00:06:30;101468.97;;;17.47;60.45
38786;BME280;24535;45.508;12.252;2023-05-14T00:08:56;101463.66;;;17.47;60.37
38786;BME280;24535;45.508;12.252;2023-05-14T00:11:21;101467.31;;;17.46;59.48
38786;BME280;24535;45.508;12.252;2023-05-14T00:13:46;101461.00;;;17.47;60.85
38786;BME280;24535;45.508;12.252;2023-05-14T00:16:12;101461.09;;;17.46;60.10
38786;BME280;24535;45.508;12.252;2023-05-14T00:18:37;101454.81;;;17.47;60.12
38786;BME280;24535;45.508;12.252;2023-05-14T00:21:02;101446.69;;;17.48;59.54
38786;BME280;24535;45.508;12.252;2023-05-14T00:23:28;101442.34;;;17.47;60.47
38786;BME280;24535;45.508;12.252;2023-05-14T00:25:53;101430.94;;;17.45;60.02
38786;BME280;24535;45.508;12.252;2023-05-14T00:28:18;101429.41;;;17.43;59.68
38786;BME280;24535;45.508;12.252;2023-05-14T00:30:44;101413.53;;;17.41;59.67
38786;BME280;24535;45.508;12.252;2023-05-14T00:33:09;101411.03;;;17.40;59.05
38786;BME280;24535;45.508;12.252;2023-05-14T00:35:34;101410.28;;;17.38;59.80
38786;BME280;24535;45.508;12.252;2023-05-14T00:38:00;101411.16;;;17.38;60.10
38786;BME280;24535;45.508;12.252;2023-05-14T00:40:26;101406.53;;;17.40;59.73
38786;BME280;24535;45.508;12.252;2023-05-14T00:42:52;101414.53;;;17.40;60.12
38786;BME280;24535;45.508;12.252;2023-05-14T00:45:17;101416.22;;;17.41;59.53
38786;BME280;24535;45.508;12.252;2023-05-14T00:47:42;101408.09;;;17.43;59.79
38786;BME280;24535;45.508;12.252;2023-05-14T00:50:08;101405.28;;;17.44;59.38
38786;BME280;24535;45.508;12.252;2023-05-14T00:52:34;101409.63;;;17.45;58.72
38786;BME280;24535;45.508;12.252;2023-05-14T00:55:01;101403.22;;;17.48;58.95
38786;BME280;24535;45.508;12.252;2023-05-14T00:57:27;101409.38;;;17.48;59.77
38786;BME280;24535;45.508;12.252;2023-05-14T00:59:52;101405.75;;;17.49;59.58
38786;BME280;24535;45.508;12.252;2023-05-14T01:02:17;101408.28;;;17.51;59.72
38786;BME280;24535;45.508;12.252;2023-05-14T01:04:43;101398.47;;;17.51;59.73
38786;BME280;24535;45.508;12.252;2023-05-14T01:07:15;101406.47;;;17.51;58.94
38786;BME280;24535;45.508;12.252;2023-05-14T01:09:52;101397.50;;;17.52;58.41
38786;BME280;24535;45.508;12.252;2023-05-14T01:15:21;101395.56;;;17.54;59.62
38786;BME280;24535;45.508;12.252;2023-05-14T01:17:55;101383.19;;;17.53;58.77
38786;BME280;24535;45.508;12.252;2023-05-14T01:20:25;101382.09;;;17.56;58.71
38786;BME280;24535;45.508;12.252;2023-05-14T01:22:50;101380.28;;;17.57;58.44
38786;BME280;24535;45.508;12.252;2023-05-14T01:25:16;101387.28;;;17.58;59.08
38786;BME280;24535;45.508;12.252;2023-05-14T01:30:23;101382.94;;;17.57;58.28
38786;BME280;24535;45.508;12.252;2023-05-14T01:32:52;101381.25;;;17.55;58.19
38786;BME280;24535;45.508;12.252;2023-05-14T01:35:19;101382.09;;;17.56;58.12
38786;BME280;24535;45.508;12.252;2023-05-14T01:37:46;101383.66;;;17.59;58.11
38786;BME280;24535;45.508;12.252;2023-05-14T01:40:13;101385.34;;;17.60;58.37
38786;BME280;24535;45.508;12.252;2023-05-14T01:42:38;101379.88;;;17.61;59.08
38786;BME280;24535;45.508;12.252;2023-05-14T01:45:04;101372.72;;;17.62;58.49
38786;BME280;24535;45.508;12.252;2023-05-14T01:47:30;101376.09;;;17.64;58.68
38786;BME280;24535;45.508;12.252;2023-05-14T01:49:55;101373.56;;;17.62;59.68
38786;BME280;24535;45.508;12.252;2023-05-14T01:52:20;101377.09;;;17.63;60.00
38786;BME280;24535;45.508;12.252;2023-05-14T01:54:46;101378.88;;;17.62;59.45
38786;BME280;24535;45.508;12.252;2023-05-14T01:57:12;101362.06;;;17.62;60.25
38786;BME280;24535;45.508;12.252;2023-05-14T01:59:38;101363.03;;;17.61;59.96
38786;BME280;24535;45.508;12.252;2023-05-14T02:02:06;101364.03;;;17.60;60.03
38786;BME280;24535;45.508;12.252;2023-05-14T02:04:36;101364.13;;;17.58;58.86
38786;BME280;24535;45.508;12.252;2023-05-14T02:07:04;101355.31;;;17.58;58.94
38786;BME280;24535;45.508;12.252;2023-05-14T02:09:30;101357.28;;;17.55;59.27
38786;BME280;24535;45.508;12.252;2023-05-14T02:11:55;101351.22;;;17.53;60.11
38786;BME280;24535;45.508;12.252;2023-05-14T02:14:20;101352.94;;;17.54;59.51
38786;BME280;24535;45.508;12.252;2023-05-14T02:16:46;101343.22;;;17.53;58.87
38786;BME280;24535;45.508;12.252;2023-05-14T02:19:11;101346.88;;;17.52;58.94
38786;BME280;24535;45.508;12.252;2023-05-14T02:21:36;101340.56;;;17.53;59.06
38786;BME280;24535;45.508;12.252;2023-05-14T02:24:01;101336.06;;;17.54;59.10
38786;BME280;24535;45.508;12.252;2023-05-14T02:26:27;101338.63;;;17.55;59.61
38786;BME280;24535;45.508;12.252;2023-05-14T02:28:52;101335.97;;;17.55;59.30
38786;BME280;24535;45.508;12.252;2023-05-14T02:31:17;101331.63;;;17.54;59.89
38786;BME280;24535;45.508;12.252;2023-05-14T02:33:43;101330.63;;;17.55;59.55
38786;BME280;24535;45.508;12.252;2023-05-14T02:36:08;101324.47;;;17.55;59.38
38786;BME280;24535;45.508;12.252;2023-05-14T02:38:34;101323.47;;;17.56;59.94
38786;BME280;24535;45.508;12.252;2023-05-14T02:40:59;101321.81;;;17.55;58.65
38786;BME280;24535;45.508;12.252;2023-05-14T02:43:25;101329.78;;;17.55;59.66
38786;BME280;24535;45.508;12.252;2023-05-14T02:45:50;101326.28;;;17.54;58.60
38786;BME280;24535;45.508;12.252;2023-05-14T02:48:15;101323.75;;;17.53;59.74
38786;BME280;24535;45.508;12.252;2023-05-14T02:50:41;101323.75;;;17.53;58.90
38786;BME280;24535;45.508;12.252;2023-05-14T02:53:06;101322.75;;;17.54;60.13
38786;BME280;24535;45.508;12.252;2023-05-14T02:55:32;101318.28;;;17.54;59.01
38786;BME280;24535;45.508;12.252;2023-05-14T02:57:58;101325.41;;;17.54;59.12
38786;BME280;24535;45.508;12.252;2023-05-14T03:00:23;101323.88;;;17.51;59.63
38786;BME280;24535;45.508;12.252;2023-05-14T03:02:48;101323.16;;;17.49;58.60
38786;BME280;24535;45.508;12.252;2023-05-14T03:05:14;101321.75;;;17.45;58.96
38786;BME280;24535;45.508;12.252;2023-05-14T03:07:39;101312.22;;;17.43;59.53
38786;BME280;24535;45.508;12.252;2023-05-14T03:10:04;101322.28;;;17.39;59.23
38786;BME280;24535;45.508;12.252;2023-05-14T03:12:30;101321.56;;;17.37;59.98
38786;BME280;24535;45.508;12.252;2023-05-14T03:14:55;101309.38;;;17.35;59.22
38786;BME280;24535;45.508;12.252;2023-05-14T03:17:20;101298.72;;;17.35;60.14
38786;BME280;24535;45.508;12.252;2023-05-14T03:19:46;101297.28;;;17.30;59.33
38786;BME280;24535;45.508;12.252;2023-05-14T03:22:11;101292.22;;;17.27;59.66
38786;BME280;24535;45.508;12.252;2023-05-14T03:24:37;101287.16;;;17.24;59.66
38786;BME280;24535;45.508;12.252;2023-05-14T03:27:03;101290.94;;;17.22;59.64
38786;BME280;24535;45.508;12.252;2023-05-14T03:29:28;101293.88;;;17.19;60.37
38786;BME280;24535;45.508;12.252;2023-05-14T03:31:54;101291.31;;;17.17;60.10
38786;BME280;24535;45.508;12.252;2023-05-14T03:34:19;101299.44;;;17.16;59.84
38786;BME280;24535;45.508;12.252;2023-05-14T03:36:44;101300.53;;;17.13;60.18
38786;BME280;24535;45.508;12.252;2023-05-14T03:39:09;101296.34;;;17.11;60.46
38786;BME280;24535;45.508;12.252;2023-05-14T03:41:35;101286.78;;;17.08;59.86
38786;BME280;24535;45.508;12.252;2023-05-14T03:44:01;101289.69;;;17.05;60.33
38786;BME280;24535;45.508;12.252;2023-05-14T03:46:26;101289.16;;;17.01;60.52
38786;BME280;24535;45.508;12.252;2023-05-14T03:48:52;101292.06;;;16.98;60.01
38786;BME280;24535;45.508;12.252;2023-05-14T03:51:17;101288.66;;;16.96;60.49
38786;BME280;24535;45.508;12.252;2023-05-14T03:53:43;101284.31;;;16.95;60.92
38786;BME280;24535;45.508;12.252;2023-05-14T03:56:08;101279.16;;;16.94;61.27
38786;BME280;24535;45.508;12.252;2023-05-14T03:58:33;101284.59;;;16.92;61.34
38786;BME280;24535;45.508;12.252;2023-05-14T04:00:58;101281.22;;;16.90;60.77
38786;BME280;24535;45.508;12.252;2023-05-14T04:03:24;101278.56;;;16.90;61.77
38786;BME280;24535;45.508;12.252;2023-05-14T04:05:49;101281.22;;;16.90;60.63
38786;BME280;24535;45.508;12.252;2023-05-14T04:08:15;101282.16;;;16.89;60.90
38786;BME280;24535;45.508;12.252;2023-05-14T04:10:41;101282.16;;;16.89;61.05
38786;BME280;24535;45.508;12.252;2023-05-14T04:13:06;101277.13;;;16.86;61.12
38786;BME280;24535;45.508;12.252;2023-05-14T04:15:32;101282.47;;;16.86;62.00
38786;BME280;24535;45.508;12.252;2023-05-14T04:17:57;101277.97;;;16.87;62.00
38786;BME280;24535;45.508;12.252;2023-05-14T04:20:22;101278.09;;;16.85;61.38
38786;BME280;24535;45.508;12.252;2023-05-14T04:22:48;101285.13;;;16.86;61.89
38786;BME280;24535;45.508;12.252;2023-05-14T04:25:13;101286.94;;;16.86;61.60
38786;BME280;24535;45.508;12.252;2023-05-14T04:27:38;101281.72;;;16.84;62.22
38786;BME280;24535;45.508;12.252;2023-05-14T04:30:03;101276.53;;;16.83;61.76
38786;BME280;24535;45.508;12.252;2023-05-14T04:32:29;101268.69;;;16.81;62.43
38786;BME280;24535;45.508;12.252;2023-05-14T04:34:54;101271.34;;;16.81;61.86
38786;BME280;24535;45.508;12.252;2023-05-14T04:37:20;101273.28;;;16.79;61.75
38786;BME280;24535;45.508;12.252;2023-05-14T04:39:45;101267.13;;;16.78;61.64
38786;BME280;24535;45.508;12.252;2023-05-14T04:42:10;101264.59;;;16.77;61.59
38786;BME280;24535;45.508;12.252;2023-05-14T04:44:36;101260.25;;;16.76;61.75
38786;BME280;24535;45.508;12.252;2023-05-14T04:47:02;101262.06;;;16.75;61.64
38786;BME280;24535;45.508;12.252;2023-05-14T04:49:27;101269.34;;;16.73;62.10
38786;BME280;24535;45.508;12.252;2023-05-14T04:51:53;101268.38;;;16.74;62.35
38786;BME280;24535;45.508;12.252;2023-05-14T04:54:18;101278.16;;;16.74;61.78
38786;BME280;24535;45.508;12.252;2023-05-14T04:56:43;101276.34;;;16.74;62.21
38786;BME280;24535;45.508;12.252;2023-05-14T04:59:08;101280.84;;;16.74;61.57
38786;BME280;24535;45.508;12.252;2023-05-14T05:01:34;101275.38;;;16.75;62.63
38786;BME280;24535;45.508;12.252;2023-05-14T05:03:59;101275.22;;;16.77;62.22
38786;BME280;24535;45.508;12.252;2023-05-14T05:06:24;101279.59;;;16.78;61.93
38786;BME280;24535;45.508;12.252;2023-05-14T05:08:50;101277.63;;;16.80;62.37
38786;BME280;24535;45.508;12.252;2023-05-14T05:11:15;101282.72;;;16.83;62.36
38786;BME280;24535;45.508;12.252;2023-05-14T05:13:40;101285.13;;;16.86;62.31
38786;BME280;24535;45.508;12.252;2023-05-14T05:16:06;101284.84;;;16.89;61.74
38786;BME280;24535;45.508;12.252;2023-05-14T05:18:31;101286.53;;;16.90;62.37
38786;BME280;24535;45.508;12.252;2023-05-14T05:20:56;101281.81;;;16.94;61.96
38786;BME280;24535;45.508;12.252;2023-05-14T05:23:22;101279.69;;;16.97;62.30
38786;BME280;24535;45.508;12.252;2023-05-14T05:25:47;101273.88;;;17.03;62.98
38786;BME280;24535;45.508;12.252;2023-05-14T05:28:13;101278.69;;;17.10;62.51
38786;BME280;24535;45.508;12.252;2023-05-14T05:30:38;101272.81;;;17.16;62.00
38786;BME280;24535;45.508;12.252;2023-05-14T05:33:03;101275.09;;;17.20;62.59
38786;BME280;24535;45.508;12.252;2023-05-14T05:35:29;101269.34;;;17.25;62.41
38786;BME280;24535;45.508;12.252;2023-05-14T05:37:56;101266.44;;;17.28;61.58
38786;BME280;24535;45.508;12.252;2023-05-14T05:40:21;101266.88;;;17.33;62.66
38786;BME280;24535;45.508;12.252;2023-05-14T05:42:47;101263.94;;;17.36;61.71
38786;BME280;24535;45.508;12.252;2023-05-14T05:45:12;101260.03;;;17.40;62.21
38786;BME280;24535;45.508;12.252;2023-05-14T05:47:38;101259.78;;;17.43;61.45
38786;BME280;24535;45.508;12.252;2023-05-14T05:50:03;101249.69;;;17.47;61.29
38786;BME280;24535;45.508;12.252;2023-05-14T05:52:28;101257.41;;;17.50;61.41
38786;BME280;24535;45.508;12.252;2023-05-14T05:54:54;101251.69;;;17.54;61.77
38786;BME280;24535;45.508;12.252;2023-05-14T05:57:19;101255.63;;;17.60;62.53
38786;BME280;24535;45.508;12.252;2023-05-14T05:59:45;101257.03;;;17.64;61.71
38786;BME280;24535;45.508;12.252;2023-05-14T06:02:11;101255.94;;;17.67;61.55
38786;BME280;24535;45.508;12.252;2023-05-14T06:04:36;101247.78;;;17.68;61.85
38786;BME280;24535;45.508;12.252;2023-05-14T06:07:01;101257.34;;;17.71;61.14
38786;BME280;24535;45.508;12.252;2023-05-14T06:09:27;101249.34;;;17.71;61.82
38786;BME280;24535;45.508;12.252;2023-05-14T06:11:52;101250.88;;;17.73;61.86
38786;BME280;24535;45.508;12.252;2023-05-14T06:14:17;101253.16;;;17.78;61.47
38786;BME280;24535;45.508;12.252;2023-05-14T06:16:42;101247.47;;;17.83;61.69
38786;BME280;24535;45.508;12.252;2023-05-14T06:19:08;101245.22;;;17.88;62.43
38786;BME280;24535;45.508;12.252;2023-05-14T06:21:34;101244.78;;;17.92;62.06
38786;BME280;24535;45.508;12.252;2023-05-14T06:23:59;101238.47;;;17.93;61.10
38786;BME280;24535;45.508;12.252;2023-05-14T06:26:24;101244.53;;;17.95;61.41
38786;BME280;24535;45.508;12.252;2023-05-14T06:28:50;101238.91;;;17.98;61.62
38786;BME280;24535;45.508;12.252;2023-05-14T06:31:15;101239.75;;;17.99;61.88
38786;BME280;24535;45.508;12.252;2023-05-14T06:33:41;101240.44;;;18.01;60.95
38786;BME280;24535;45.508;12.252;2023-05-14T06:36:06;101238.50;;;18.03;61.11
38786;BME280;24535;45.508;12.252;2023-05-14T06:38:32;101238.34;;;18.04;61.22
38786;BME280;24535;45.508;12.252;2023-05-14T06:40:57;101233.72;;;18.07;61.43
38786;BME280;24535;45.508;12.252;2023-05-14T06:43:22;101232.88;;;18.06;61.98
38786;BME280;24535;45.508;12.252;2023-05-14T06:45:51;101231.03;;;18.07;61.28
38786;BME280;24535;45.508;12.252;2023-05-14T06:48:16;101233.72;;;18.07;62.02
38786;BME280;24535;45.508;12.252;2023-05-14T06:50:45;101231.03;;;18.07;61.14
38786;BME280;24535;45.508;12.252;2023-05-14T06:53:11;101225.72;;;18.07;61.66
38786;BME280;24535;45.508;12.252;2023-05-14T06:55:36;101219.53;;;18.06;61.19
38786;BME280;24535;45.508;12.252;2023-05-14T06:58:01;101223.03;;;18.07;61.24
38786;BME280;24535;45.508;12.252;2023-05-14T07:00:28;101227.28;;;18.09;61.05
38786;BME280;24535;45.508;12.252;2023-05-14T07:02:54;101216.59;;;18.09;61.81
38786;BME280;24535;45.508;12.252;2023-05-14T07:05:19;101216.44;;;18.11;61.12
38786;BME280;24535;45.508;12.252;2023-05-14T07:07:45;101222.34;;;18.14;61.11
38786;BME280;24535;45.508;12.252;2023-05-14T07:10:10;101222.50;;;18.13;61.20
38786;BME280;24535;45.508;12.252;2023-05-14T07:12:35;101221.66;;;18.12;61.08
38786;BME280;24535;45.508;12.252;2023-05-14T07:15:01;101221.50;;;18.14;61.81
38786;BME280;24535;45.508;12.252;2023-05-14T07:17:26;101217.03;;;18.14;61.75
38786;BME280;24535;45.508;12.252;2023-05-14T07:19:51;101211.69;;;18.14;62.13
38786;BME280;24535;45.508;12.252;2023-05-14T07:22:19;101201.72;;;18.16;61.40
38786;BME280;24535;45.508;12.252;2023-05-14T07:24:44;101202.56;;;18.17;62.07
38786;BME280;24535;45.508;12.252;2023-05-14T07:27:10;101197.94;;;18.19;61.52
38786;BME280;24535;45.508;12.252;2023-05-14T07:29:36;101197.09;;;18.18;61.83
38786;BME280;24535;45.508;12.252;2023-05-14T07:32:02;101192.47;;;18.20;61.90
38786;BME280;24535;45.508;12.252;2023-05-14T07:34:27;101185.31;;;18.21;62.02
38786;BME280;24535;45.508;12.252;2023-05-14T07:36:52;101185.31;;;18.21;62.82
38786;BME280;24535;45.508;12.252;2023-05-14T07:39:18;101184.31;;;18.22;62.97
38786;BME280;24535;45.508;12.252;2023-05-14T07:41:43;101178.00;;;18.23;62.01
38786;BME280;24535;45.508;12.252;2023-05-14T07:44:08;101183.31;;;18.23;62.55
38786;BME280;24535;45.508;12.252;2023-05-14T07:46:35;101180.81;;;18.21;61.86
38786;BME280;24535;45.508;12.252;2023-05-14T07:49:00;101179.13;;;18.20;62.41
38786;BME280;24535;45.508;12.252;2023-05-14T07:51:25;101170.41;;;18.18;62.36
38786;BME280;24535;45.508;12.252;2023-05-14T07:53:52;101173.09;;;18.18;62.52
38786;BME280;24535;45.508;12.252;2023-05-14T07:56:18;101165.91;;;18.19;62.61
38786;BME280;24535;45.508;12.252;2023-05-14T07:58:44;101154.41;;;18.18;62.12
38786;BME280;24535;45.508;12.252;2023-05-14T08:01:09;101162.31;;;18.20;63.10
38786;BME280;24535;45.508;12.252;2023-05-14T08:03:34;101158.78;;;18.19;62.87
38786;BME280;24535;45.508;12.252;2023-05-14T08:06:00;101160.75;;;18.17;62.04
38786;BME280;24535;45.508;12.252;2023-05-14T08:08:25;101160.91;;;18.16;62.66
38786;BME280;24535;45.508;12.252;2023-05-14T08:10:51;101152.19;;;18.14;62.45
38786;BME280;24535;45.508;12.252;2023-05-14T08:13:17;101155.56;;;18.16;62.37
38786;BME280;24535;45.508;12.252;2023-05-14T08:15:42;101144.75;;;18.17;63.05
38786;BME280;24535;45.508;12.252;2023-05-14T08:18:07;101145.47;;;18.19;62.70
38786;BME280;24535;45.508;12.252;2023-05-14T08:20:33;101144.75;;;18.17;62.92
38786;BME280;24535;45.508;12.252;2023-05-14T08:22:58;101148.41;;;18.16;62.74
38786;BME280;24535;45.508;12.252;2023-05-14T08:25:23;101143.91;;;18.17;63.66
38786;BME280;24535;45.508;12.252;2023-05-14T08:27:49;101152.91;;;18.16;63.17
38786;BME280;24535;45.508;12.252;2023-05-14T08:30:14;101148.41;;;18.16;63.42
38786;BME280;24535;45.508;12.252;2023-05-14T08:32:40;101154.41;;;18.18;64.03
38786;BME280;24535;45.508;12.252;2023-05-14T08:35:06;101161.47;;;18.19;62.67
38786;BME280;24535;45.508;12.252;2023-05-14T08:37:32;101154.97;;;18.22;63.50
38786;BME280;24535;45.508;12.252;2023-05-14T08:39:57;101157.66;;;18.22;63.20
38786;BME280;24535;45.508;12.252;2023-05-14T08:42:23;101163.53;;;18.25;63.88
38786;BME280;24535;45.508;12.252;2023-05-14T08:44:50;101161.72;;;18.26;63.07
38786;BME280;24535;45.508;12.252;2023-05-14T08:47:17;101158.06;;;18.27;63.67
38786;BME280;24535;45.508;12.252;2023-05-14T08:49:45;101165.78;;;18.30;64.06
38786;BME280;24535;45.508;12.252;2023-05-14T08:52:11;101164.81;;;18.31;63.75
38786;BME280;24535;45.508;12.252;2023-05-14T08:54:37;101163.13;;;18.30;64.62
38786;BME280;24535;45.508;12.252;2023-05-14T08:57:03;101160.44;;;18.30;63.91
38786;BME280;24535;45.508;12.252;2023-05-14T08:59:28;101153.28;;;18.31;64.25
38786;BME280;24535;45.508;12.252;2023-05-14T09:01:53;101157.66;;;18.32;64.23
38786;BME280;24535;45.508;12.252;2023-05-14T09:04:21;101155.81;;;18.32;63.10
38786;BME280;24535;45.508;12.252;2023-05-14T09:06:50;101155.00;;;18.32;63.30
38786;BME280;24535;45.508;12.252;2023-05-14T09:09:17;101159.47;;;18.31;63.28
38786;BME280;24535;45.508;12.252;2023-05-14T09:11:45;101147.94;;;18.31;63.59
38786;BME280;24535;45.508;12.252;2023-05-14T09:14:11;101156.94;;;18.29;63.61
38786;BME280;24535;45.508;12.252;2023-05-14T09:16:37;101146.28;;;18.29;63.92
38786;BME280;24535;45.508;12.252;2023-05-14T09:19:05;101146.16;;;18.31;63.55
38786;BME280;24535;45.508;12.252;2023-05-14T09:21:31;101147.94;;;18.31;64.46
38786;BME280;24535;45.508;12.252;2023-05-14T09:23:56;101139.94;;;18.31;64.04
38786;BME280;24535;45.508;12.252;2023-05-14T09:26:23;101131.25;;;18.28;63.87
38786;BME280;24535;45.508;12.252;2023-05-14T09:28:52;101125.09;;;18.28;64.84
38786;BME280;24535;45.508;12.252;2023-05-14T09:31:17;101121.03;;;18.24;64.11
38786;BME280;24535;45.508;12.252;2023-05-14T09:33:42;101122.41;;;18.18;63.40
38786;BME280;24535;45.508;12.252;2023-05-14T09:36:13;101119.06;;;18.16;63.36
38786;BME280;24535;45.508;12.252;2023-05-14T09:38:42;101116.41;;;18.16;64.55
38786;BME280;24535;45.508;12.252;2023-05-14T09:41:07;101119.91;;;18.17;64.43
38786;BME280;24535;45.508;12.252;2023-05-14T09:43:32;101121.59;;;18.18;63.69
38786;BME280;24535;45.508;12.252;2023-05-14T09:45:58;101126.91;;;18.18;64.08
38786;BME280;24535;45.508;12.252;2023-05-14T09:48:23;101134.78;;;18.19;64.48
38786;BME280;24535;45.508;12.252;2023-05-14T09:50:49;101144.19;;;18.23;63.86
38786;BME280;24535;45.508;12.252;2023-05-14T09:53:15;101140.53;;;18.24;63.85
38786;BME280;24535;45.508;12.252;2023-05-14T09:55:41;101137.59;;;18.27;64.14
38786;BME280;24535;45.508;12.252;2023-05-14T09:58:07;101142.63;;;18.31;64.20
38786;BME280;24535;45.508;12.252;2023-05-14T10:00:32;101130.00;;;18.33;63.55
38786;BME280;24535;45.508;12.252;2023-05-14T10:02:58;101129.56;;;18.37;63.23
38786;BME280;24535;45.508;12.252;2023-05-14T10:05:28;101129.97;;;18.42;63.34
38786;BME280;24535;45.508;12.252;2023-05-14T10:07:53;101125.06;;;18.47;64.28
38786;BME280;24535;45.508;12.252;2023-05-14T10:10:22;101116.75;;;18.50;62.36
38786;BME280;24535;45.508;12.252;2023-05-14T10:12:50;101121.50;;;18.57;63.11
38786;BME280;24535;45.508;12.252;2023-05-14T10:15:18;101119.78;;;18.65;63.55
38786;BME280;24535;45.508;12.252;2023-05-14T10:17:51;101119.78;;;18.75;63.71
38786;BME280;24535;45.508;12.252;2023-05-14T10:20:19;101114.09;;;18.88;62.74
38786;BME280;24535;45.508;12.252;2023-05-14T10:22:46;101110.41;;;18.98;62.15
38786;BME280;24535;45.508;12.252;2023-05-14T10:25:12;101113.88;;;19.09;62.65
38786;BME280;24535;45.508;12.252;2023-05-14T10:27:38;101111.84;;;19.20;62.51
38786;BME280;24535;45.508;12.252;2023-05-14T10:30:04;101120.47;;;19.32;63.66
38786;BME280;24535;45.508;12.252;2023-05-14T10:32:30;101108.06;;;19.41;61.97
38786;BME280;24535;45.508;12.252;2023-05-14T10:34:57;101102.94;;;19.47;62.08
38786;BME280;24535;45.508;12.252;2023-05-14T10:37:23;101103.03;;;19.56;61.95
38786;BME280;24535;45.508;12.252;2023-05-14T10:42:18;101097.88;;;19.72;61.31
38786;BME280;24535;45.508;12.252;2023-05-14T10:47:13;101092.22;;;19.75;59.74
38786;BME280;24535;45.508;12.252;2023-05-14T10:49:38;101100.94;;;19.77;59.80
38786;BME280;24535;45.508;12.252;2023-05-14T10:52:06;101099.94;;;19.78;60.43
38786;BME280;24535;45.508;12.252;2023-05-14T10:54:33;101091.91;;;19.78;59.66
38786;BME280;24535;45.508;12.252;2023-05-14T10:56:59;101089.06;;;19.80;59.64
38786;BME280;24535;45.508;12.252;2023-05-14T10:59:27;101082.38;;;19.75;59.20
38786;BME280;24535;45.508;12.252;2023-05-14T11:01:53;101078.47;;;19.70;58.96
38786;BME280;24535;45.508;12.252;2023-05-14T11:04:18;101076.28;;;19.65;59.19
38786;BME280;24535;45.508;12.252;2023-05-14T11:06:47;101072.22;;;19.61;59.36
38786;BME280;24535;45.508;12.252;2023-05-14T11:09:12;101070.66;;;19.59;59.40
38786;BME280;24535;45.508;12.252;2023-05-14T11:11:41;101067.28;;;19.57;59.18
38786;BME280;24535;45.508;12.252;2023-05-14T11:14:06;101061.25;;;19.55;58.91
38786;BME280;24535;45.508;12.252;2023-05-14T11:16:32;101058.59;;;19.55;59.69
38786;BME280;24535;45.508;12.252;2023-05-14T11:19:01;101058.28;;;19.58;60.26
38786;BME280;24535;45.508;12.252;2023-05-14T11:21:27;101049.28;;;19.59;59.43
38786;BME280;24535;45.508;12.252;2023-05-14T11:23:53;101052.94;;;19.58;59.58
38786;BME280;24535;45.508;12.252;2023-05-14T11:26:18;101056.91;;;19.54;59.09
38786;BME280;24535;45.508;12.252;2023-05-14T11:28:44;101065.22;;;19.50;59.00
38786;BME280;24535;45.508;12.252;2023-05-14T11:31:10;101078.06;;;19.47;58.70
38786;BME280;24535;45.508;12.252;2023-05-14T11:33:36;101084.41;;;19.46;59.19
38786;BME280;24535;45.508;12.252;2023-05-14T11:36:01;101081.56;;;19.47;59.30
38786;BME280;24535;45.508;12.252;2023-05-14T11:38:26;101068.50;;;19.44;58.79
38786;BME280;24535;45.508;12.252;2023-05-14T11:40:52;101065.31;;;19.41;58.42
38786;BME280;24535;45.508;12.252;2023-05-14T11:43:18;101074.63;;;19.37;58.52
38786;BME280;24535;45.508;12.252;2023-05-14T11:45:48;101083.06;;;19.32;58.33
38786;BME280;24535;45.508;12.252;2023-05-14T11:48:13;101078.88;;;19.30;58.01
38786;BME280;24535;45.508;12.252;2023-05-14T11:50:39;101077.88;;;19.31;59.20
38786;BME280;24535;45.508;12.252;2023-05-14T11:53:04;101078.72;;;19.31;59.06
38786;BME280;24535;45.508;12.252;2023-05-14T11:55:32;101076.06;;;19.31;58.87
38786;BME280;24535;45.508;12.252;2023-05-14T11:57:57;101074.22;;;19.32;59.50
38786;BME280;24535;45.508;12.252;2023-05-14T12:00:23;101077.06;;;19.30;58.91
38786;BME280;24535;45.508;12.252;2023-05-14T12:02:50;101076.34;;;19.28;59.18
38786;BME280;24535;45.508;12.252;2023-05-14T12:05:15;101073.38;;;19.31;59.10
38786;BME280;24535;45.508;12.252;2023-05-14T12:07:43;101066.06;;;19.33;58.97
38786;BME280;24535;45.508;12.252;2023-05-14T12:10:10;101067.44;;;19.37;59.11
38786;BME280;24535;45.508;12.252;2023-05-14T12:12:36;101068.81;;;19.41;58.94
38786;BME280;24535;45.508;12.252;2023-05-14T12:15:01;101062.19;;;19.45;59.35
38786;BME280;24535;45.508;12.252;2023-05-14T12:17:26;101062.56;;;19.50;59.46
38786;BME280;24535;45.508;12.252;2023-05-14T12:19:52;101062.94;;;19.56;59.36
38786;BME280;24535;45.508;12.252;2023-05-14T12:22:19;101057.28;;;19.59;59.37
38786;BME280;24535;45.508;12.252;2023-05-14T12:24:58;101055.31;;;19.61;58.94
38786;BME280;24535;45.508;12.252;2023-05-14T12:27:27;101049.97;;;19.61;58.67
38786;BME280;24535;45.508;12.252;2023-05-14T12:32:24;101039.72;;;19.56;58.13
38786;BME280;24535;45.508;12.252;2023-05-14T12:34:49;101042.38;;;19.56;58.47
38786;BME280;24535;45.508;12.252;2023-05-14T12:37:15;101033.25;;;19.59;58.51
38786;BME280;24535;45.508;12.252;2023-05-14T12:39:40;101042.50;;;19.64;58.79
38786;BME280;24535;45.508;12.252;2023-05-14T12:42:05;101037.00;;;19.66;58.82
38786;BME280;24535;45.508;12.252;2023-05-14T12:44:30;101033.34;;;19.67;58.43
38786;BME280;24535;45.508;12.252;2023-05-14T12:46:56;101040.53;;;19.66;58.03